sensor_id;sensor_type;location;lat;lon;timestamp;temperature;humidity
18177;DHT22;9213;50.858;3.964;2023-02-03T00:01:49;13.70;58.50
18177;DHT22;9213;50.858;3.964;2023-02-03T00:04:16;13.70;58.50
18177;DHT22;9213;50.858;3.964;2023-02-03T00:06:44;13.70;58.30
18177;DHT22;9213;50.858;3.964;2023-02-03T00:09:11;13.70;58.20
18177;DHT22;9213;50.858;3.964;2023-02-03T00:11:38;13.70;58.20
18177;DHT22;9213;50.858;3.964;2023-02-03T00:14:05;13.80;58.10
18177;DHT22;9213;50.858;3.964;2023-02-03T00:16:32;13.70;58.10
18177;DHT22;9213;50.858;3.964;2023-02-03T00:19:01;13.70;58.10
18177;DHT22;9213;50.858;3.964;2023-02-03T00:21:28;13.70;58.10
18177;DHT22;9213;50.858;3.964;2023-02-03T00:23:55;13.70;58.10
18177;DHT22;9213;50.858;3.964;2023-02-03T00:26:22;13.70;58.20
18177;DHT22;9213;50.858;3.964;2023-02-03T00:28:50;13.70;58.20
18177;DHT22;9213;50.858;3.964;2023-02-03T00:31:18;13.70;58.20
18177;DHT22;9213;50.858;3.964;2023-02-03T00:33:46;13.70;58.30
18177;DHT22;9213;50.858;3.964;2023-02-03T00:36:14;13.60;58.30
18177;DHT22;9213;50.858;3.964;2023-02-03T00:38:41;13.60;58.30
18177;DHT22;9213;50.858;3.964;2023-02-03T00:41:08;13.70;58.40
18177;DHT22;9213;50.858;3.964;2023-02-03T00:43:35;13.70;58.30
18177;DHT22;9213;50.858;3.964;2023-02-03T00:46:02;13.70;58.30
18177;DHT22;9213;50.858;3.964;2023-02-03T00:48:29;13.70;58.30
18177;DHT22;9213;50.858;3.964;2023-02-03T00:50:56;13.70;58.30
18177;DHT22;9213;50.858;3.964;2023-02-03T00:53:24;13.70;58.30
18177;DHT22;9213;50.858;3.964;2023-02-03T00:55:51;13.70;58.30
18177;DHT22;9213;50.858;3.964;2023-02-03T00:58:18;13.70;58.30
18177;DHT22;9213;50.858;3.964;2023-02-03T01:00:45;13.70;58.30
18177;DHT22;9213;50.858;3.964;2023-02-03T01:03:12;13.70;58.30
18177;DHT22;9213;50.858;3.964;2023-02-03T01:05:39;13.70;58.30
18177;DHT22;9213;50.858;3.964;2023-02-03T01:08:06;13.70;58.30
18177;DHT22;9213;50.858;3.964;2023-02-03T01:10:36;13.70;58.20
18177;DHT22;9213;50.858;3.964;2023-02-03T01:13:03;13.80;58.30
18177;DHT22;9213;50.858;3.964;2023-02-03T01:15:30;13.70;58.20
18177;DHT22;9213;50.858;3.964;2023-02-03T01:17:57;13.80;58.20
18177;DHT22;9213;50.858;3.964;2023-02-03T01:20:24;13.80;58.20
18177;DHT22;9213;50.858;3.964;2023-02-03T01:22:51;13.80;58.10
18177;DHT22;9213;50.858;3.964;2023-02-03T01:25:18;13.80;58.10
18177;DHT22;9213;50.858;3.964;2023-02-03T01:27:46;13.80;58.00
18177;DHT22;9213;50.858;3.964;2023-02-03T01:30:13;13.80;58.00
18177;DHT22;9213;50.858;3.964;2023-02-03T01:32:40;13.80;57.80
18177;DHT22;9213;50.858;3.964;2023-02-03T01:35:07;13.80;57.80
18177;DHT22;9213;50.858;3.964;2023-02-03T01:37:34;13.80;57.70
18177;DHT22;9213;50.858;3.964;2023-02-03T01:40:01;13.80;57.70
18177;DHT22;9213;50.858;3.964;2023-02-03T01:42:32;13.80;57.70
18177;DHT22;9213;50.858;3.964;2023-02-03T01:45:00;13.80;57.70
18177;DHT22;9213;50.858;3.964;2023-02-03T01:47:31;13.80;57.60
18177;DHT22;9213;50.858;3.964;2023-02-03T01:50:06;13.80;57.60
18177;DHT22;9213;50.858;3.964;2023-02-03T01:52:35;13.80;57.50
18177;DHT22;9213;50.858;3.964;2023-02-03T01:55:07;13.80;57.40
18177;DHT22;9213;50.858;3.964;2023-02-03T01:57:38;13.80;57.40
18177;DHT22;9213;50.858;3.964;2023-02-03T02:00:09;13.80;57.30
18177;DHT22;9213;50.858;3.964;2023-02-03T02:02:36;13.80;57.30
18177;DHT22;9213;50.858;3.964;2023-02-03T02:05:05;13.70;57.30
18177;DHT22;9213;50.858;3.964;2023-02-03T02:07:33;13.70;57.20
18177;DHT22;9213;50.858;3.964;2023-02-03T02:10:03;13.70;57.20
18177;DHT22;9213;50.858;3.964;2023-02-03T02:12:30;13.70;57.10
18177;DHT22;9213;50.858;3.964;2023-02-03T02:14:58;13.70;57.10
18177;DHT22;9213;50.858;3.964;2023-02-03T02:17:44;13.70;57.10
18177;DHT22;9213;50.858;3.964;2023-02-03T02:20:32;13.80;57.20
18177;DHT22;9213;50.858;3.964;2023-02-03T02:23:26;13.80;57.10
18177;DHT22;9213;50.858;3.964;2023-02-03T02:29:16;13.70;57.20
18177;DHT22;9213;50.858;3.964;2023-02-03T02:31:51;13.70;57.20
18177;DHT22;9213;50.858;3.964;2023-02-03T02:34:26;13.70;57.20
18177;DHT22;9213;50.858;3.964;2023-02-03T02:37:06;13.70;57.30
18177;DHT22;9213;50.858;3.964;2023-02-03T02:39:42;13.70;57.30
18177;DHT22;9213;50.858;3.964;2023-02-03T02:42:15;13.70;58.00
18177;DHT22;9213;50.858;3.964;2023-02-03T02:44:49;13.70;57.30
18177;DHT22;9213;50.858;3.964;2023-02-03T02:47:19;13.70;57.30
18177;DHT22;9213;50.858;3.964;2023-02-03T02:49:51;13.70;57.30
18177;DHT22;9213;50.858;3.964;2023-02-03T02:52:21;13.70;57.30
18177;DHT22;9213;50.858;3.964;2023-02-03T02:54:52;13.70;57.30
18177;DHT22;9213;50.858;3.964;2023-02-03T02:57:20;13.70;57.30
18177;DHT22;9213;50.858;3.964;2023-02-03T02:59:49;13.70;57.20
18177;DHT22;9213;50.858;3.964;2023-02-03T03:02:16;13.70;57.10
18177;DHT22;9213;50.858;3.964;2023-02-03T03:04:45;13.70;57.10
18177;DHT22;9213;50.858;3.964;2023-02-03T03:07:17;13.70;57.10
18177;DHT22;9213;50.858;3.964;2023-02-03T03:09:47;13.70;57.00
18177;DHT22;9213;50.858;3.964;2023-02-03T03:12:18;13.70;56.90
18177;DHT22;9213;50.858;3.964;2023-02-03T03:14:50;13.70;56.90
18177;DHT22;9213;50.858;3.964;2023-02-03T03:17:22;13.70;56.90
18177;DHT22;9213;50.858;3.964;2023-02-03T03:19:54;13.70;56.80
18177;DHT22;9213;50.858;3.964;2023-02-03T03:22:25;13.70;56.80
18177;DHT22;9213;50.858;3.964;2023-02-03T03:24:59;13.70;56.70
18177;DHT22;9213;50.858;3.964;2023-02-03T03:27:30;13.70;56.60
18177;DHT22;9213;50.858;3.964;2023-02-03T03:30:02;13.70;56.60
18177;DHT22;9213;50.858;3.964;2023-02-03T03:32:31;13.70;56.50
18177;DHT22;9213;50.858;3.964;2023-02-03T03:35:01;13.70;56.40
18177;DHT22;9213;50.858;3.964;2023-02-03T03:37:34;13.70;56.40
18177;DHT22;9213;50.858;3.964;2023-02-03T03:40:07;13.70;56.30
18177;DHT22;9213;50.858;3.964;2023-02-03T03:42:38;13.80;56.30
18177;DHT22;9213;50.858;3.964;2023-02-03T03:45:10;13.70;56.20
18177;DHT22;9213;50.858;3.964;2023-02-03T03:47:45;13.70;56.20
18177;DHT22;9213;50.858;3.964;2023-02-03T03:50:18;13.70;56.20
18177;DHT22;9213;50.858;3.964;2023-02-03T03:52:47;13.70;56.20
18177;DHT22;9213;50.858;3.964;2023-02-03T03:55:17;13.70;56.20
18177;DHT22;9213;50.858;3.964;2023-02-03T03:57:50;13.70;56.10
18177;DHT22;9213;50.858;3.964;2023-02-03T04:00:20;13.70;56.20
18177;DHT22;9213;50.858;3.964;2023-02-03T04:02:51;13.70;56.10
18177;DHT22;9213;50.858;3.964;2023-02-03T04:05:22;13.70;56.10
18177;DHT22;9213;50.858;3.964;2023-02-03T04:07:49;13.70;56.70
18177;DHT22;9213;50.858;3.964;2023-02-03T04:10:22;13.70;56.00
18177;DHT22;9213;50.858;3.964;2023-02-03T04:12:51;13.70;56.00
18177;DHT22;9213;50.858;3.964;2023-02-03T04:15:18;13.70;55.80
18177;DHT22;9213;50.858;3.964;2023-02-03T04:17:44;13.70;55.90
18177;DHT22;9213;50.858;3.964;2023-02-03T04:20:12;13.70;55.80
18177;DHT22;9213;50.858;3.964;2023-02-03T04:22:41;13.70;55.80
18177;DHT22;9213;50.858;3.964;2023-02-03T04:25:08;13.70;55.80
18177;DHT22;9213;50.858;3.964;2023-02-03T04:27:35;13.70;55.80
18177;DHT22;9213;50.858;3.964;2023-02-03T04:30:02;13.70;55.70
18177;DHT22;9213;50.858;3.964;2023-02-03T04:32:29;13.70;55.70
18177;DHT22;9213;50.858;3.964;2023-02-03T04:34:56;13.70;55.60
18177;DHT22;9213;50.858;3.964;2023-02-03T04:37:23;13.70;55.60
18177;DHT22;9213;50.858;3.964;2023-02-03T04:39:52;13.70;55.60
18177;DHT22;9213;50.858;3.964;2023-02-03T04:42:20;13.70;55.60
18177;DHT22;9213;50.858;3.964;2023-02-03T04:44:47;13.70;55.50
18177;DHT22;9213;50.858;3.964;2023-02-03T04:47:14;13.70;55.50
18177;DHT22;9213;50.858;3.964;2023-02-03T04:49:41;13.70;55.50
18177;DHT22;9213;50.858;3.964;2023-02-03T04:52:09;13.70;55.50
18177;DHT22;9213;50.858;3.964;2023-02-03T04:54:36;13.70;55.50
18177;DHT22;9213;50.858;3.964;2023-02-03T04:57:04;13.70;55.50
18177;DHT22;9213;50.858;3.964;2023-02-03T04:59:31;13.70;55.50
18177;DHT22;9213;50.858;3.964;2023-02-03T05:02:01;13.70;55.60
18177;DHT22;9213;50.858;3.964;2023-02-03T05:04:28;13.70;55.60
18177;DHT22;9213;50.858;3.964;2023-02-03T05:06:55;13.60;55.50
18177;DHT22;9213;50.858;3.964;2023-02-03T05:09:22;13.70;55.50
18177;DHT22;9213;50.858;3.964;2023-02-03T05:11:49;13.70;55.60
18177;DHT22;9213;50.858;3.964;2023-02-03T05:14:17;13.70;55.50
18177;DHT22;9213;50.858;3.964;2023-02-03T05:16:45;13.70;55.50
18177;DHT22;9213;50.858;3.964;2023-02-03T05:19:12;13.70;55.50
18177;DHT22;9213;50.858;3.964;2023-02-03T05:21:39;13.70;55.40
18177;DHT22;9213;50.858;3.964;2023-02-03T05:24:06;13.70;55.50
18177;DHT22;9213;50.858;3.964;2023-02-03T05:26:33;13.70;55.50
18177;DHT22;9213;50.858;3.964;2023-02-03T05:29:00;13.70;55.40
18177;DHT22;9213;50.858;3.964;2023-02-03T05:31:29;13.70;55.40
18177;DHT22;9213;50.858;3.964;2023-02-03T05:33:56;13.70;55.40
18177;DHT22;9213;50.858;3.964;2023-02-03T05:36:23;13.70;55.40
18177;DHT22;9213;50.858;3.964;2023-02-03T05:38:49;13.70;55.40
18177;DHT22;9213;50.858;3.964;2023-02-03T05:41:16;13.70;55.40
18177;DHT22;9213;50.858;3.964;2023-02-03T05:44:01;13.70;55.30
18177;DHT22;9213;50.858;3.964;2023-02-03T05:46:29;13.70;55.30
18177;DHT22;9213;50.858;3.964;2023-02-03T05:48:56;13.70;55.30
18177;DHT22;9213;50.858;3.964;2023-02-03T05:51:23;13.70;55.30
18177;DHT22;9213;50.858;3.964;2023-02-03T05:53:50;13.70;55.30
18177;DHT22;9213;50.858;3.964;2023-02-03T05:56:18;13.70;55.30
18177;DHT22;9213;50.858;3.964;2023-02-03T05:58:45;13.70;55.20
18177;DHT22;9213;50.858;3.964;2023-02-03T06:01:12;13.70;55.30
18177;DHT22;9213;50.858;3.964;2023-02-03T06:03:40;13.70;55.20
18177;DHT22;9213;50.858;3.964;2023-02-03T06:06:07;13.70;55.20
18177;DHT22;9213;50.858;3.964;2023-02-03T06:08:34;13.70;55.20
18177;DHT22;9213;50.858;3.964;2023-02-03T06:11:01;13.70;55.20
18177;DHT22;9213;50.858;3.964;2023-02-03T06:13:28;13.70;55.20
18177;DHT22;9213;50.858;3.964;2023-02-03T06:15:55;13.70;55.20
18177;DHT22;9213;50.858;3.964;2023-02-03T06:18:22;13.70;55.10
18177;DHT22;9213;50.858;3.964;2023-02-03T06:20:50;13.70;55.10
18177;DHT22;9213;50.858;3.964;2023-02-03T06:23:17;13.70;55.10
18177;DHT22;9213;50.858;3.964;2023-02-03T06:25:44;13.70;55.20
18177;DHT22;9213;50.858;3.964;2023-02-03T06:28:11;13.70;55.20
18177;DHT22;9213;50.858;3.964;2023-02-03T06:30:38;13.70;55.20
18177;DHT22;9213;50.858;3.964;2023-02-03T06:33:05;13.70;55.20
18177;DHT22;9213;50.858;3.964;2023-02-03T06:35:32;13.70;55.20
18177;DHT22;9213;50.858;3.964;2023-02-03T06:38:01;13.70;55.20
18177;DHT22;9213;50.858;3.964;2023-02-03T06:40:28;13.70;55.30
18177;DHT22;9213;50.858;3.964;2023-02-03T06:42:54;13.70;55.30
18177;DHT22;9213;50.858;3.964;2023-02-03T06:45:21;13.70;55.40
18177;DHT22;9213;50.858;3.964;2023-02-03T06:47:49;13.70;55.40
18177;DHT22;9213;50.858;3.964;2023-02-03T06:50:16;13.70;55.50
18177;DHT22;9213;50.858;3.964;2023-02-03T06:52:43;13.70;55.60
18177;DHT22;9213;50.858;3.964;2023-02-03T06:55:11;13.70;55.60
18177;DHT22;9213;50.858;3.964;2023-02-03T06:57:42;13.70;55.70
18177;DHT22;9213;50.858;3.964;2023-02-03T07:00:11;13.70;55.80
18177;DHT22;9213;50.858;3.964;2023-02-03T07:02:39;13.70;55.80
18177;DHT22;9213;50.858;3.964;2023-02-03T07:05:06;13.70;55.90
18177;DHT22;9213;50.858;3.964;2023-02-03T07:07:34;13.70;56.00
18177;DHT22;9213;50.858;3.964;2023-02-03T07:10:04;13.70;56.00
18177;DHT22;9213;50.858;3.964;2023-02-03T07:12:32;13.70;56.00
18177;DHT22;9213;50.858;3.964;2023-02-03T07:15:01;13.70;56.10
18177;DHT22;9213;50.858;3.964;2023-02-03T07:17:28;13.70;56.10
18177;DHT22;9213;50.858;3.964;2023-02-03T07:19:55;13.70;56.10
18177;DHT22;9213;50.858;3.964;2023-02-03T07:22:22;13.70;56.10
18177;DHT22;9213;50.858;3.964;2023-02-03T07:24:49;13.70;56.10
18177;DHT22;9213;50.858;3.964;2023-02-03T07:27:16;13.70;56.10
18177;DHT22;9213;50.858;3.964;2023-02-03T07:29:45;13.70;56.10
18177;DHT22;9213;50.858;3.964;2023-02-03T07:32:12;13.70;56.10
18177;DHT22;9213;50.858;3.964;2023-02-03T07:34:38;13.70;56.10
18177;DHT22;9213;50.858;3.964;2023-02-03T07:37:05;13.70;56.10
18177;DHT22;9213;50.858;3.964;2023-02-03T07:39:32;13.70;56.00
18177;DHT22;9213;50.858;3.964;2023-02-03T07:41:59;13.80;56.00
18177;DHT22;9213;50.858;3.964;2023-02-03T07:44:26;13.80;56.00
18177;DHT22;9213;50.858;3.964;2023-02-03T07:46:54;13.80;56.00
18177;DHT22;9213;50.858;3.964;2023-02-03T07:49:22;13.80;56.00
18177;DHT22;9213;50.858;3.964;2023-02-03T07:51:48;13.80;56.00
18177;DHT22;9213;50.858;3.964;2023-02-03T07:54:15;13.90;56.00
18177;DHT22;9213;50.858;3.964;2023-02-03T07:56:42;13.90;56.00
18177;DHT22;9213;50.858;3.964;2023-02-03T07:59:09;13.90;55.90
18177;DHT22;9213;50.858;3.964;2023-02-03T08:01:36;14.00;55.70
18177;DHT22;9213;50.858;3.964;2023-02-03T08:04:04;14.00;55.50
18177;DHT22;9213;50.858;3.964;2023-02-03T08:06:31;14.00;55.50
18177;DHT22;9213;50.858;3.964;2023-02-03T08:08:58;14.00;55.40
18177;DHT22;9213;50.858;3.964;2023-02-03T08:11:25;14.00;56.10
18177;DHT22;9213;50.858;3.964;2023-02-03T08:13:52;14.00;55.40
18177;DHT22;9213;50.858;3.964;2023-02-03T08:16:19;14.00;55.50
18177;DHT22;9213;50.858;3.964;2023-02-03T08:18:46;14.00;55.50
18177;DHT22;9213;50.858;3.964;2023-02-03T08:21:14;13.90;55.50
18177;DHT22;9213;50.858;3.964;2023-02-03T08:23:41;14.00;55.50
18177;DHT22;9213;50.858;3.964;2023-02-03T08:26:08;14.00;55.40
18177;DHT22;9213;50.858;3.964;2023-02-03T08:28:35;14.00;55.40
18177;DHT22;9213;50.858;3.964;2023-02-03T08:31:08;14.00;55.40
18177;DHT22;9213;50.858;3.964;2023-02-03T08:33:35;14.10;55.40
18177;DHT22;9213;50.858;3.964;2023-02-03T08:36:03;14.10;55.40
18177;DHT22;9213;50.858;3.964;2023-02-03T08:38:31;14.10;55.40
18177;DHT22;9213;50.858;3.964;2023-02-03T08:40:59;14.10;55.40
18177;DHT22;9213;50.858;3.964;2023-02-03T08:43:26;14.20;55.30
18177;DHT22;9213;50.858;3.964;2023-02-03T08:45:52;14.20;55.10
18177;DHT22;9213;50.858;3.964;2023-02-03T08:48:19;14.20;55.10
18177;DHT22;9213;50.858;3.964;2023-02-03T08:50:46;14.30;55.10
18177;DHT22;9213;50.858;3.964;2023-02-03T08:53:17;14.30;55.00
18177;DHT22;9213;50.858;3.964;2023-02-03T08:55:45;14.30;55.00
18177;DHT22;9213;50.858;3.964;2023-02-03T08:58:12;14.40;55.00
18177;DHT22;9213;50.858;3.964;2023-02-03T09:00:39;14.40;54.80
18177;DHT22;9213;50.858;3.964;2023-02-03T09:03:06;14.50;54.90
18177;DHT22;9213;50.858;3.964;2023-02-03T09:05:33;14.50;54.70
18177;DHT22;9213;50.858;3.964;2023-02-03T09:08:00;14.60;55.30
18177;DHT22;9213;50.858;3.964;2023-02-03T09:10:28;14.70;54.50
18177;DHT22;9213;50.858;3.964;2023-02-03T09:12:56;14.80;54.30
18177;DHT22;9213;50.858;3.964;2023-02-03T09:15:23;14.90;54.10
18177;DHT22;9213;50.858;3.964;2023-02-03T09:17:51;14.90;53.80
18177;DHT22;9213;50.858;3.964;2023-02-03T09:20:19;15.00;53.50
18177;DHT22;9213;50.858;3.964;2023-02-03T09:22:48;15.00;53.40
18177;DHT22;9213;50.858;3.964;2023-02-03T09:25:15;15.00;53.50
18177;DHT22;9213;50.858;3.964;2023-02-03T09:27:41;15.10;53.40
18177;DHT22;9213;50.858;3.964;2023-02-03T09:30:11;15.10;53.30
18177;DHT22;9213;50.858;3.964;2023-02-03T09:32:39;15.20;53.30
18177;DHT22;9213;50.858;3.964;2023-02-03T09:35:06;15.10;53.20
18177;DHT22;9213;50.858;3.964;2023-02-03T09:37:33;15.10;53.20
18177;DHT22;9213;50.858;3.964;2023-02-03T09:40:00;15.20;53.20
18177;DHT22;9213;50.858;3.964;2023-02-03T09:43:02;15.20;53.00
18177;DHT22;9213;50.858;3.964;2023-02-03T09:45:32;15.40;53.10
18177;DHT22;9213;50.858;3.964;2023-02-03T09:48:02;15.30;52.70
18177;DHT22;9213;50.858;3.964;2023-02-03T09:50:32;15.20;52.60
18177;DHT22;9213;50.858;3.964;2023-02-03T09:53:04;15.20;52.70
18177;DHT22;9213;50.858;3.964;2023-02-03T09:55:35;15.10;53.00
18177;DHT22;9213;50.858;3.964;2023-02-03T09:58:07;15.10;53.10
18177;DHT22;9213;50.858;3.964;2023-02-03T10:00:41;15.10;53.30
18177;DHT22;9213;50.858;3.964;2023-02-03T10:03:16;15.20;53.40
18177;DHT22;9213;50.858;3.964;2023-02-03T10:06:01;15.30;53.30
18177;DHT22;9213;50.858;3.964;2023-02-03T10:08:41;15.40;53.20
18177;DHT22;9213;50.858;3.964;2023-02-03T10:11:16;15.50;53.10
18177;DHT22;9213;50.858;3.964;2023-02-03T10:13:54;15.60;52.90
18177;DHT22;9213;50.858;3.964;2023-02-03T10:16:47;15.60;52.50
18177;DHT22;9213;50.858;3.964;2023-02-03T10:19:19;15.80;52.50
18177;DHT22;9213;50.858;3.964;2023-02-03T10:21:51;15.70;52.10
18177;DHT22;9213;50.858;3.964;2023-02-03T10:24:25;15.80;52.10
18177;DHT22;9213;50.858;3.964;2023-02-03T10:26:53;15.80;52.00
18177;DHT22;9213;50.858;3.964;2023-02-03T10:29:30;15.90;52.00
18177;DHT22;9213;50.858;3.964;2023-02-03T10:32:01;16.00;52.10
18177;DHT22;9213;50.858;3.964;2023-02-03T10:34:28;16.00;51.80
18177;DHT22;9213;50.858;3.964;2023-02-03T10:36:56;16.20;51.70
18177;DHT22;9213;50.858;3.964;2023-02-03T10:39:29;16.20;51.40
18177;DHT22;9213;50.858;3.964;2023-02-03T10:41:57;16.30;51.30
18177;DHT22;9213;50.858;3.964;2023-02-03T10:44:32;16.30;51.10
18177;DHT22;9213;50.858;3.964;2023-02-03T10:47:12;16.40;50.80
18177;DHT22;9213;50.858;3.964;2023-02-03T10:49:41;16.40;50.80
18177;DHT22;9213;50.858;3.964;2023-02-03T10:52:24;16.40;50.80
18177;DHT22;9213;50.858;3.964;2023-02-03T10:54:52;16.50;50.90
18177;DHT22;9213;50.858;3.964;2023-02-03T10:57:19;16.40;50.60
18177;DHT22;9213;50.858;3.964;2023-02-03T10:59:47;16.40;50.40
18177;DHT22;9213;50.858;3.964;2023-02-03T11:02:23;16.40;50.50
18177;DHT22;9213;50.858;3.964;2023-02-03T11:05:17;16.40;50.50
18177;DHT22;9213;50.858;3.964;2023-02-03T11:07:45;16.40;50.60
18177;DHT22;9213;50.858;3.964;2023-02-03T11:10:33;16.40;50.30
18177;DHT22;9213;50.858;3.964;2023-02-03T11:13:14;16.40;50.70
18177;DHT22;9213;50.858;3.964;2023-02-03T11:15:51;16.30;50.70
18177;DHT22;9213;50.858;3.964;2023-02-03T11:18:35;16.20;50.80
18177;DHT22;9213;50.858;3.964;2023-02-03T11:21:08;16.10;51.00
18177;DHT22;9213;50.858;3.964;2023-02-03T11:23:40;16.00;51.10
18177;DHT22;9213;50.858;3.964;2023-02-03T11:26:12;16.00;51.30
18177;DHT22;9213;50.858;3.964;2023-02-03T11:28:42;15.90;51.60
18177;DHT22;9213;50.858;3.964;2023-02-03T11:31:19;15.90;51.80
18177;DHT22;9213;50.858;3.964;2023-02-03T11:33:50;15.90;52.10
18177;DHT22;9213;50.858;3.964;2023-02-03T11:36:17;15.90;52.10
18177;DHT22;9213;50.858;3.964;2023-02-03T11:38:45;15.90;52.10
18177;DHT22;9213;50.858;3.964;2023-02-03T11:41:16;15.90;52.00
18177;DHT22;9213;50.858;3.964;2023-02-03T11:43:43;15.80;52.00
18177;DHT22;9213;50.858;3.964;2023-02-03T11:46:10;15.80;52.00
18177;DHT22;9213;50.858;3.964;2023-02-03T11:48:41;15.80;52.20
18177;DHT22;9213;50.858;3.964;2023-02-03T11:51:20;15.80;52.30
18177;DHT22;9213;50.858;3.964;2023-02-03T11:54:01;15.80;52.40
18177;DHT22;9213;50.858;3.964;2023-02-03T11:56:45;15.80;52.40
18177;DHT22;9213;50.858;3.964;2023-02-03T11:59:35;15.80;52.60
18177;DHT22;9213;50.858;3.964;2023-02-03T12:02:30;15.80;52.70
18177;DHT22;9213;50.858;3.964;2023-02-03T12:05:21;15.90;52.90
18177;DHT22;9213;50.858;3.964;2023-02-03T12:08:03;15.90;52.70
18177;DHT22;9213;50.858;3.964;2023-02-03T12:10:43;16.00;52.50
18177;DHT22;9213;50.858;3.964;2023-02-03T12:13:25;16.10;52.40
18177;DHT22;9213;50.858;3.964;2023-02-03T12:16:07;16.10;52.30
18177;DHT22;9213;50.858;3.964;2023-02-03T12:18:45;16.10;52.30
18177;DHT22;9213;50.858;3.964;2023-02-03T12:21:40;16.10;52.20
18177;DHT22;9213;50.858;3.964;2023-02-03T12:24:18;16.10;52.50
18177;DHT22;9213;50.858;3.964;2023-02-03T12:26:56;16.10;52.50
18177;DHT22;9213;50.858;3.964;2023-02-03T12:29:30;16.10;52.70
18177;DHT22;9213;50.858;3.964;2023-02-03T12:32:04;16.10;53.20
18177;DHT22;9213;50.858;3.964;2023-02-03T12:34:34;16.10;52.50
18177;DHT22;9213;50.858;3.964;2023-02-03T12:37:05;16.10;52.50
18177;DHT22;9213;50.858;3.964;2023-02-03T12:39:39;16.10;52.40
18177;DHT22;9213;50.858;3.964;2023-02-03T12:42:14;16.20;52.50
18177;DHT22;9213;50.858;3.964;2023-02-03T12:44:46;16.20;52.70
18177;DHT22;9213;50.858;3.964;2023-02-03T12:47:20;16.20;52.70
18177;DHT22;9213;50.858;3.964;2023-02-03T12:49:52;16.40;52.70
18177;DHT22;9213;50.858;3.964;2023-02-03T12:52:23;16.40;52.40
18177;DHT22;9213;50.858;3.964;2023-02-03T12:55:01;16.50;52.30
18177;DHT22;9213;50.858;3.964;2023-02-03T12:57:33;16.50;52.30
18177;DHT22;9213;50.858;3.964;2023-02-03T13:00:23;16.40;52.20
18177;DHT22;9213;50.858;3.964;2023-02-03T13:03:04;16.30;52.60
18177;DHT22;9213;50.858;3.964;2023-02-03T13:05:40;16.20;53.00
18177;DHT22;9213;50.858;3.964;2023-02-03T13:08:14;16.20;53.30
18177;DHT22;9213;50.858;3.964;2023-02-03T13:10:48;16.10;53.40
18177;DHT22;9213;50.858;3.964;2023-02-03T13:13:24;16.20;53.40
18177;DHT22;9213;50.858;3.964;2023-02-03T13:15:54;16.20;53.30
18177;DHT22;9213;50.858;3.964;2023-02-03T13:18:26;16.10;53.30
18177;DHT22;9213;50.858;3.964;2023-02-03T13:20:54;16.20;53.40
18177;DHT22;9213;50.858;3.964;2023-02-03T13:23:22;16.20;53.40
18177;DHT22;9213;50.858;3.964;2023-02-03T13:28:57;16.30;53.60
18177;DHT22;9213;50.858;3.964;2023-02-03T13:31:42;16.40;53.40
18177;DHT22;9213;50.858;3.964;2023-02-03T13:34:20;16.40;53.40
18177;DHT22;9213;50.858;3.964;2023-02-03T13:37:08;16.50;53.40
18177;DHT22;9213;50.858;3.964;2023-02-03T13:39:49;16.60;53.50
18177;DHT22;9213;50.858;3.964;2023-02-03T13:42:25;16.70;53.20
18177;DHT22;9213;50.858;3.964;2023-02-03T13:44:55;16.80;52.70
18177;DHT22;9213;50.858;3.964;2023-02-03T13:47:25;16.80;52.60
18177;DHT22;9213;50.858;3.964;2023-02-03T13:49:55;16.80;52.50
18177;DHT22;9213;50.858;3.964;2023-02-03T13:52:30;16.80;52.40
18177;DHT22;9213;50.858;3.964;2023-02-03T13:54:59;16.90;52.30
18177;DHT22;9213;50.858;3.964;2023-02-03T13:57:31;16.90;52.10
18177;DHT22;9213;50.858;3.964;2023-02-03T14:00:00;16.90;52.20
18177;DHT22;9213;50.858;3.964;2023-02-03T14:02:52;16.90;52.20
18177;DHT22;9213;50.858;3.964;2023-02-03T14:05:45;17.00;52.40
18177;DHT22;9213;50.858;3.964;2023-02-03T14:11:39;17.10;52.40
18177;DHT22;9213;50.858;3.964;2023-02-03T14:14:41;17.10;52.30
18177;DHT22;9213;50.858;3.964;2023-02-03T14:23:16;17.00;52.00
18177;DHT22;9213;50.858;3.964;2023-02-03T14:25:48;17.00;51.80
18177;DHT22;9213;50.858;3.964;2023-02-03T14:28:19;16.90;51.70
18177;DHT22;9213;50.858;3.964;2023-02-03T14:31:03;16.90;51.50
18177;DHT22;9213;50.858;3.964;2023-02-03T14:34:05;16.90;51.70
18177;DHT22;9213;50.858;3.964;2023-02-03T14:36:38;16.90;51.80
18177;DHT22;9213;50.858;3.964;2023-02-03T14:42:16;16.70;51.80
18177;DHT22;9213;50.858;3.964;2023-02-03T14:44:56;16.60;51.70
18177;DHT22;9213;50.858;3.964;2023-02-03T14:47:39;16.50;51.80
18177;DHT22;9213;50.858;3.964;2023-02-03T14:50:24;16.50;51.80
18177;DHT22;9213;50.858;3.964;2023-02-03T14:53:08;16.50;51.90
18177;DHT22;9213;50.858;3.964;2023-02-03T14:55:47;16.50;51.90
18177;DHT22;9213;50.858;3.964;2023-02-03T14:58:23;16.40;52.40
18177;DHT22;9213;50.858;3.964;2023-02-03T15:00:52;16.40;51.80
18177;DHT22;9213;50.858;3.964;2023-02-03T15:03:25;16.40;51.80
18177;DHT22;9213;50.858;3.964;2023-02-03T15:05:57;16.40;51.70
18177;DHT22;9213;50.858;3.964;2023-02-03T15:08:40;16.40;51.80
18177;DHT22;9213;50.858;3.964;2023-02-03T15:11:23;16.40;52.00
18177;DHT22;9213;50.858;3.964;2023-02-03T15:13:51;16.40;52.00
18177;DHT22;9213;50.858;3.964;2023-02-03T15:16:20;16.40;51.90
18177;DHT22;9213;50.858;3.964;2023-02-03T15:18:55;16.40;51.90
18177;DHT22;9213;50.858;3.964;2023-02-03T15:21:23;16.40;51.80
18177;DHT22;9213;50.858;3.964;2023-02-03T15:23:50;16.30;51.90
18177;DHT22;9213;50.858;3.964;2023-02-03T15:26:18;16.30;51.90
18177;DHT22;9213;50.858;3.964;2023-02-03T15:28:55;16.40;52.00
18177;DHT22;9213;50.858;3.964;2023-02-03T15:31:29;16.40;52.00
18177;DHT22;9213;50.858;3.964;2023-02-03T15:34:04;16.40;51.80
18177;DHT22;9213;50.858;3.964;2023-02-03T15:36:38;16.40;51.80
18177;DHT22;9213;50.858;3.964;2023-02-03T15:39:16;16.30;51.90
18177;DHT22;9213;50.858;3.964;2023-02-03T15:41:47;16.30;52.00
18177;DHT22;9213;50.858;3.964;2023-02-03T15:44:25;16.30;52.60
18177;DHT22;9213;50.858;3.964;2023-02-03T15:46:54;16.30;52.00
18177;DHT22;9213;50.858;3.964;2023-02-03T15:49:26;16.20;51.80
18177;DHT22;9213;50.858;3.964;2023-02-03T15:51:56;16.20;52.10
18177;DHT22;9213;50.858;3.964;2023-02-03T15:54:26;16.20;52.00
18177;DHT22;9213;50.858;3.964;2023-02-03T15:56:57;16.20;52.10
18177;DHT22;9213;50.858;3.964;2023-02-03T15:59:29;16.20;52.00
18177;DHT22;9213;50.858;3.964;2023-02-03T16:01:58;16.20;52.10
18177;DHT22;9213;50.858;3.964;2023-02-03T16:04:30;16.20;52.10
18177;DHT22;9213;50.858;3.964;2023-02-03T16:06:58;16.10;52.20
18177;DHT22;9213;50.858;3.964;2023-02-03T16:09:28;16.10;52.30
18177;DHT22;9213;50.858;3.964;2023-02-03T16:14:45;16.10;52.50
18177;DHT22;9213;50.858;3.964;2023-02-03T16:17:24;16.00;52.30
18177;DHT22;9213;50.858;3.964;2023-02-03T16:20:18;16.10;53.40
18177;DHT22;9213;50.858;3.964;2023-02-03T16:22:58;16.00;52.60
18177;DHT22;9213;50.858;3.964;2023-02-03T16:25:27;16.00;52.60
18177;DHT22;9213;50.858;3.964;2023-02-03T16:27:56;16.00;52.70
18177;DHT22;9213;50.858;3.964;2023-02-03T16:30:52;16.00;52.70
18177;DHT22;9213;50.858;3.964;2023-02-03T16:33:36;16.00;52.80